METAR Data

Data at: 0533 UTC 20 Oct 2018

METAR for:KISP (Islip/Macarthur Arpt, NY, US)
Text:KISP 200456Z AUTO 23014KT 10SM CLR 15/08 A2989 RMK AO2 SLP122 T01500083 401560006
Temperature: 15.0°C ( 59°F)
Dewpoint: 8.3°C ( 47°F) [RH = 64%]
Pressure (altimeter):29.89 inches Hg (1012.3 mb) [Sea level pressure: 1012.2 mb]
Winds:from the SW (230 degrees) at 16 MPH (14 knots; 7.2 m/s)
Visibility:10 or more sm (16+ km)
Ceiling:at least 12,000 feet AGL
Clouds:sky clear below 12,000 feet AGL
QC Flag:automated observation with no human augmentation